Map

Track Data

SID SEASON NUMBER BASIN SUBBASIN NAME ISO_TIME NATURE LAT LON WMO_WIND WMO_PRES WMO_AGENCY TRACK_TYPE DIST2LAND LANDFALL IFLAG USA_AGENCY USA_ATCF_ID USA_LAT USA_LON USA_RECORD USA_STATUS USA_WIND USA_PRES USA_SSHS USA_R34_NE USA_R34_SE USA_R34_SW USA_R34_NW USA_R50_NE USA_R50_SE USA_R50_SW USA_R50_NW USA_R64_NE USA_R64_SE USA_R64_SW USA_R64_NW USA_POCI USA_ROCI USA_RMW USA_EYE TOKYO_LAT TOKYO_LON TOKYO_GRADE TOKYO_WIND TOKYO_PRES TOKYO_R50_DIR TOKYO_R50_LONG TOKYO_R50_SHORT TOKYO_R30_DIR TOKYO_R30_LONG TOKYO_R30_SHORT TOKYO_LAND CMA_LAT CMA_LON CMA_CAT CMA_WIND CMA_PRES HKO_LAT HKO_LON HKO_CAT HKO_WIND HKO_PRES NEWDELHI_LAT NEWDELHI_LON NEWDELHI_GRADE NEWDELHI_WIND NEWDELHI_PRES NEWDELHI_CI NEWDELHI_DP NEWDELHI_POCI REUNION_LAT REUNION_LON REUNION_TYPE REUNION_WIND REUNION_PRES REUNION_TNUM REUNION_CI REUNION_RMW REUNION_R34_NE REUNION_R34_SE REUNION_R34_SW REUNION_R34_NW REUNION_R50_NE REUNION_R50_SE REUNION_R50_SW REUNION_R50_NW REUNION_R64_NE REUNION_R64_SE REUNION_R64_SW REUNION_R64_NW BOM_LAT BOM_LON BOM_TYPE BOM_WIND BOM_PRES BOM_TNUM BOM_CI BOM_RMW BOM_R34_NE BOM_R34_SE BOM_R34_SW BOM_R34_NW BOM_R50_NE BOM_R50_SE BOM_R50_SW BOM_R50_NW BOM_R64_NE BOM_R64_SE BOM_R64_SW BOM_R64_NW BOM_ROCI BOM_POCI BOM_EYE BOM_POS_METHOD BOM_PRES_METHOD NADI_LAT NADI_LON NADI_CAT NADI_WIND NADI_PRES WELLINGTON_LAT WELLINGTON_LON WELLINGTON_WIND WELLINGTON_PRES DS824_LAT DS824_LON DS824_STAGE DS824_WIND DS824_PRES TD9636_LAT TD9636_LON TD9636_STAGE TD9636_WIND TD9636_PRES TD9635_LAT TD9635_LON TD9635_WIND TD9635_PRES TD9635_ROCI NEUMANN_LAT NEUMANN_LON NEUMANN_CLASS NEUMANN_WIND NEUMANN_PRES MLC_LAT MLC_LON MLC_CLASS MLC_WIND MLC_PRES USA_GUST BOM_GUST BOM_GUST_PER REUNION_GUST REUNION_GUST_PER USA_SEAHGT USA_SEARAD_NE USA_SEARAD_SE USA_SEARAD_SW USA_SEARAD_NW STORM_SPEED STORM_DIR
1862001S12081 1862 1 SI MM NOT_NAMED 1862-01-01 06:00:00 NR -11.9000 81.4500 main 1996 1995 _____O____O___ -1 -11.7000 81.8000 99 9.90000 -12.1000 81.1000 7 3 244
1862001S12081 1862 1 SI MM NOT_NAMED 1862-01-01 09:00:00 NR -11.9566 81.3275 main 2007 2006 _____P____P___ -1 -11.7303 81.7237 99 -12.1829 80.9313 7 3 244
1862001S12081 1862 1 SI MM NOT_NAMED 1862-01-01 12:00:00 NR -12.0175 81.2026 main 2006 2006 _____P____P___ -1 -11.7624 81.6452 99 -12.2726 80.7600 7 3 242
1862001S12081 1862 1 SI MM NOT_NAMED 1862-01-01 15:00:00 NR -12.0871 81.0730 main 2017 2017 _____P____P___ -1 -11.7983 81.5621 99 -12.3760 80.5838 7 3 240
1862001S12081 1862 1 SI MM NOT_NAMED 1862-01-01 18:00:00 NR -12.1699 80.9362 main 2028 2028 _____P____O___ -1 -11.8398 81.4723 99 -12.5000 80.4000 7 3 237
1862001S12081 1862 1 SI MM NOT_NAMED 1862-01-01 21:00:00 NR -12.2691 80.7903 main 2039 2039 _____P____P___ -1 -11.8889 81.3735 99 -12.6494 80.2072 7 4 234
1862001S12081 1862 1 SI MM NOT_NAMED 1862-01-02 00:00:00 NR -12.3837 80.6354 main 2050 2050 _____P____P___ -1 -11.9474 81.2633 99 -12.8200 80.0075 7 4 232
1862001S12081 1862 1 SI MM NOT_NAMED 1862-01-02 03:00:00 NR -12.5114 80.4718 main 2061 2061 _____P____P___ -1 -12.0171 81.1396 99 -13.0056 79.8040 7 4 231
1862001S12081 1862 1 SI MM NOT_NAMED 1862-01-02 06:00:00 NR -12.6500 80.3000 main 2073 2073 _____O____O___ -1 -12.1000 81.0000 99 9.90000 -13.2000 79.6000 7 5 230
1862001S12081 1862 1 SI MM NOT_NAMED 1862-01-02 09:00:00 NR -12.7971 80.1175 main 2095 2095 _____P____P___ -1 -12.1974 80.8432 99 -13.3969 79.3919 7 5 230
1862001S12081 1862 1 SI MM NOT_NAMED 1862-01-02 12:00:00 NR -12.9543 79.9282 main 2118 2118 _____P____P___ -1 -12.3086 80.6713 99 -13.6000 79.1850 7 5 229
1862001S12081 1862 1 SI MM NOT_NAMED 1862-01-02 15:00:00 NR -13.1178 79.7366 main 2131 2131 _____P____P___ -1 -12.4325 80.4875 99 -13.8031 78.9856 7 5 228
1862001S12081 1862 1 SI MM NOT_NAMED 1862-01-02 18:00:00 NR -13.2839 79.5475 main 2154 2154 _____P____O___ -1 -12.5678 80.2950 99 -14.0000 78.8000 7 5 228
1862001S12081 1862 1 SI MM NOT_NAMED 1862-01-02 21:00:00 NR -13.4498 79.3601 main 2166 2166 _____P____P___ -1 -12.7133 80.0968 99 -14.1862 78.6234 7 5 227
1862001S12081 1862 1 SI MM NOT_NAMED 1862-01-03 00:00:00 NR -13.6165 79.1793 main 2190 2190 _____P____P___ -1 -12.8680 79.8962 99 -14.3650 78.4624 7 5 226
1862001S12081 1862 1 SI MM NOT_NAMED 1862-01-03 03:00:00 NR -13.7834 79.0082 main 2214 2214 _____P____P___ -1 -13.0306 79.6962 99 -14.5362 78.3203 7 5 224
1862001S12081 1862 1 SI MM NOT_NAMED 1862-01-03 06:00:00 NR -13.9500 78.8500 reunion main 2226 2238 _____O____O___ -1 -13.2000 79.5000 99 9.90000 -14.7000 78.2000 7 4 223
1862001S12081 1862 1 SI MM NOT_NAMED 1862-01-03 09:00:00 NR -14.1079 78.7013 main 2250 2250 _____P____P___ -1 -13.3709 79.3033 99 -14.8450 78.0992 7 4 221
1862001S12081 1862 1 SI MM NOT_NAMED 1862-01-03 12:00:00 NR -14.2677 78.5632 main 2273 2273 _____P____P___ -1 -13.5504 79.1066 99 -14.9849 78.0198 7 4 218
1862001S12081 1862 1 SI MM NOT_NAMED 1862-01-03 15:00:00 NR -14.4346 78.4342 main 2282 2264 _____P____P___ -1 -13.7367 78.9130 99 -15.1325 77.9555 7 4 215
1862001S12081 1862 1 SI MM NOT_NAMED 1862-01-03 18:00:00 NR -14.6138 78.3128 main 2264 2246 _____P____O___ -1 -13.9277 78.7255 99 -15.3000 77.9000 7 5 211
1862001S12081 1862 1 SI MM NOT_NAMED 1862-01-03 21:00:00 NR -14.8226 78.1931 main 2246 2229 _____P____P___ -1 -14.1215 78.5474 99 -15.5237 77.8388 7 5 207
1862001S12081 1862 1 SI MM NOT_NAMED 1862-01-04 00:00:00 NR -15.0405 78.0833 main 2229 2212 _____P____P___ -1 -14.3161 78.3816 99 -15.7650 77.7850 7 5 205
1862001S12081 1862 1 SI MM NOT_NAMED 1862-01-04 03:00:00 NR -15.2542 77.9851 main 2209 2195 _____P____P___ -1 -14.5096 78.2315 99 -15.9987 77.7388 7 4 203
1862001S12081 1862 1 SI MM NOT_NAMED 1862-01-04 06:00:00 NR -15.4500 77.9000 reunion main 2195 2178 _____O____O___ -1 -14.7000 78.1000 99 9.90000 -16.2000 77.7000 7 4 204
1862001S12081 1862 1 SI MM NOT_NAMED 1862-01-04 09:00:00 NR -15.6075 77.8257 main 2178 2175 _____P____P___ -1 -14.8871 77.9878 99 -16.3278 77.6637 7 3 204
1862001S12081 1862 1 SI MM NOT_NAMED 1862-01-04 12:00:00 NR -15.7478 77.7643 main 2175 2158 _____P____P___ -1 -15.0731 77.8936 99 -16.4225 77.6349 7 3 201
1862001S12081 1862 1 SI MM NOT_NAMED 1862-01-04 15:00:00 NR -15.8814 77.7147 main 2158 2155 _____P____P___ -1 -15.2569 77.8157 99 -16.5059 77.6137 7 3 198
1862001S12081 1862 1 SI MM NOT_NAMED 1862-01-04 18:00:00 NR -16.0186 77.6760 main 2155 2139 _____P____O___ -1 -15.4371 77.7520 99 -16.6000 77.6000 7 3 194
1862001S12081 1862 1 SI MM NOT_NAMED 1862-01-04 21:00:00 NR -16.1762 77.6467 main 2139 2136 _____P____P___ -1 -15.6128 77.7006 99 -16.7397 77.5928 7 3 187
1862001S12081 1862 1 SI MM NOT_NAMED 1862-01-05 00:00:00 NR -16.3376 77.6259 main 2136 2130 _____P____P___ -1 -15.7826 77.6594 99 -16.8925 77.5925 7 3 188
1862001S12081 1862 1 SI MM NOT_NAMED 1862-01-05 03:00:00 NR -16.4972 77.6112 main 2130 2127 _____P____P___ -1 -15.9454 77.6265 99 -17.0491 77.5959 7 3 0
1862001S12081 1862 1 SI MM NOT_NAMED 1862-01-05 06:00:00 NR -16.6500 77.6000 reunion main 2127 2122 _____O____O___ -1 -16.1000 77.6000 99 9.90000 -17.2000 77.6000 7 3 188
1862001S12081 1862 1 SI MM NOT_NAMED 1862-01-05 09:00:00 NR -16.7849 77.5795 main 2122 2119 _____P____P___ -1 -16.2416 77.5631 99 -17.3281 77.5960 7 3 189
1862001S12081 1862 1 SI MM NOT_NAMED 1862-01-05 12:00:00 NR -16.9123 77.5632 main 2119 2117 _____P____P___ -1 -16.3746 77.5339 99 -17.4500 77.5925 7 3 0
1862001S12081 1862 1 SI MM NOT_NAMED 1862-01-05 15:00:00 NR -17.0364 77.5525 main 2117 2101 _____P____P___ -1 -16.5009 77.5121 99 -17.5719 77.5928 7 3 186
1862001S12081 1862 1 SI MM NOT_NAMED 1862-01-05 18:00:00 NR -17.1612 77.5487 main 2101 2099 _____P____O___ -1 -16.6224 77.4974 99 -17.7000 77.6000 7 3 0
1862001S12081 1862 1 SI MM NOT_NAMED 1862-01-05 21:00:00 NR -17.2879 77.5494 main 2099 2099 _____P____P___ -1 -16.7411 77.4892 99 -17.8347 77.6097 7 3 0
1862001S12081 1862 1 SI MM NOT_NAMED 1862-01-06 00:00:00 NR -17.4183 77.5574 main 2107 2105 _____P____P___ -1 -16.8590 77.4871 99 -17.9775 77.6276 7 3 0
1862001S12081 1862 1 SI MM NOT_NAMED 1862-01-06 03:00:00 NR -17.5548 77.5738 main 2102 2100 _____P____P___ -1 -16.9780 77.4909 99 -18.1315 77.6566 7 3 171
1862001S12081 1862 1 SI MM NOT_NAMED 1862-01-06 06:00:00 NR -17.7000 77.6000 reunion main 2100 2096 _____O____O___ -1 -17.1000 77.5000 99 9.90000 -18.3000 77.7000 7 3 170
1862001S12081 1862 1 SI MM NOT_NAMED 1862-01-06 09:00:00 NR -17.8594 77.6359 main 2096 2096 _____P____P___ -1 -17.2290 77.5072 99 -18.4897 77.7646 7 3 166
1862001S12081 1862 1 SI MM NOT_NAMED 1862-01-06 12:00:00 NR -18.0261 77.6814 main 2104 2100 _____P____P___ -1 -17.3597 77.5203 99 -18.6925 77.8424 7 4 166
1862001S12081 1862 1 SI MM NOT_NAMED 1862-01-06 15:00:00 NR -18.1957 77.7314 main 2100 2099 _____P____P___ -1 -17.4924 77.5389 99 -18.8991 77.9240 7 4 164
1862001S12081 1862 1 SI MM NOT_NAMED 1862-01-06 18:00:00 NR -18.3637 77.7813 main 2107 2105 _____P____O___ -1 -17.6275 77.5626 99 -19.1000 78.0000 7 3 165
1862001S12081 1862 1 SI MM NOT_NAMED 1862-01-06 21:00:00 NR -18.5268 77.8270 main 2105 2104 _____P____P___ -1 -17.7654 77.5909 99 -19.2881 78.0632 7 2 166
1862001S12081 1862 1 SI MM NOT_NAMED 1862-01-07 00:00:00 NR -18.5744 77.8342 main 2104 2104 _____P____P___ -1 -17.9066 77.6235 99 -19.4650 78.1150 7 1 201
1862001S12081 1862 1 SI MM NOT_NAMED 1862-01-07 03:00:00 NR -18.5790 77.8265 main 2104 2104 _____P____P___ -1 -18.0513 77.6600 99 -19.6344 78.1594 7 1 323
1862001S12081 1862 1 SI MM NOT_NAMED 1862-01-07 06:00:00 NR -18.5200 77.8000 reunion main 2105 2097 _____O____O___ -1 -18.2000 77.7000 99 9.90000 -19.8000 78.2000 7 2 340
1862001S12081 1862 1 SI MM NOT_NAMED 1862-01-07 09:00:00 NR -18.3628 77.7387 main 2097 2097 _____P________ -1 -18.3628 77.7387 99 7 0 0
1862001S12081 1862 1 SI MM NOT_NAMED 1862-01-07 12:00:00 NR -18.5309 77.7815 main 2105 2102 _____P________ -1 -18.5309 77.7815 99 7 4 166
1862001S12081 1862 1 SI MM NOT_NAMED 1862-01-07 15:00:00 NR -18.7017 77.8278 main 2102 2101 _____P________ -1 -18.7017 77.8278 99 7 4 165
1862001S12081 1862 1 SI MM NOT_NAMED 1862-01-07 18:00:00 NR -18.8725 77.8774 main 2109 2108 _____P________ -1 -18.8725 77.8774 99 4 164
1862001S12081 1862 1 SI MM NOT_NAMED 1862-01-07 21:00:00 NR -19.0404 77.9298 main 2108 2107 _____P________ -1 -19.0404 77.9298 99 3 162
1862001S12081 1862 1 SI MM NOT_NAMED 1862-01-08 00:00:00 NR -19.2028 77.9846 main 2116 2114 _____P________ -1 -19.2028 77.9846 99 3 162
1862001S12081 1862 1 SI MM NOT_NAMED 1862-01-08 03:00:00 NR -19.3569 78.0415 main 2113 2113 _____P________ -1 -19.3569 78.0415 99 3 160
1862001S12081 1862 1 SI MM NOT_NAMED 1862-01-08 06:00:00 NR -19.5000 78.1000 reunion main 2122 2121 _____O________ -1 -19.5000 78.1000 99 9.90000 3 157
1862001S12081 1862 1 SI MM NOT_NAMED 1862-01-08 09:00:00 NR -19.6301 78.1598 main 2132 2131 _____P________ -1 -19.6301 78.1598 99 3 156
1862001S12081 1862 1 SI MM NOT_NAMED 1862-01-08 12:00:00 NR -19.7482 78.2206 main 2131 2130 _____P________ -1 -19.7482 78.2206 99 3 152
1862001S12081 1862 1 SI MM NOT_NAMED 1862-01-08 15:00:00 NR -19.8559 78.2824 main 2139 2139 _____P________ -1 -19.8559 78.2824 99 2 151
1862001S12081 1862 1 SI MM NOT_NAMED 1862-01-08 18:00:00 NR -19.9551 78.3449 main 2138 2138 _____P________ -1 -19.9551 78.3449 99 2 149
1862001S12081 1862 1 SI MM NOT_NAMED 1862-01-08 21:00:00 NR -20.0473 78.4081 main 2149 2148 _____P________ -1 -20.0473 78.4081 99 2 146
1862001S12081 1862 1 SI MM NOT_NAMED 1862-01-09 00:00:00 NR -20.1344 78.4718 main 2158 2157 _____P________ -1 -20.1344 78.4718 99 2 145
1862001S12081 1862 1 SI MM NOT_NAMED 1862-01-09 03:00:00 NR -20.2181 78.5358 main 2157 2157 _____P________ -1 -20.2181 78.5358 99 2 144
1862001S12081 1862 1 SI MM NOT_NAMED 1862-01-09 06:00:00 NR -20.3000 78.6000 reunion main 2167 _____O________ -1 -20.3000 78.6000 99 9.90000 2 148

About IBTrACS Database

This database is a web-friendly format of International Best Track Archive for Climate Stewardship (IBTrACS), a global best track data archive curated by NOAA dating back to 1842.

Updated: 2021-10-08